Bay Village, OH (44140)

11:46 AM EST on February 21, 2017 (GMT -0500)
Westlake Ohio, 1 mile south of Lake Erie | | Change Station

Elev 659 ft 41.47 °N, 81.92 °W | Updated 7 minutes ago

Mostly Cloudy
Mostly Cloudy
61.9 °F
Feels Like 61.9 °F
N
0.0
Wind Variable Wind from South
Gusts 3.0 mph

Today
High -- | Low -- °F
--% Chance of Precip.
Yesterday
High -- | Low -- °F
Precip. -- in
Pressure 30.02 in
Visibility 10.0 miles
Clouds Few 15000 ft
Overcast 20000 ft
Dew Point 46 °F
Humidity 56%
Rainfall 0.00 in
Snow Depth Not available.
7:13 AM 6:09 PM
Waning Crescent, 24% visible
METAR KCLE 211551Z 21009KT 10SM FEW150 OVC200 16/03 A3002 RMK AO2 SLP165 T01560028
Pressure 30.02 in
Visibility 10.0 miles
Clouds Few 15000 ft
Overcast 20000 ft
Dew Point 46 °F
Humidity 56%
Rainfall 0.00 in
Snow Depth Not available.
7:13 AM 6:09 PM
Waning Crescent, 24% visible
METAR KCLE 211551Z 21009KT 10SM FEW150 OVC200 16/03 A3002 RMK AO2 SLP165 T01560028

Get Your Daily Forecast Email!

Thanks for signing up!

Be on the lookout for a verification email in your inbox.

You'll start receiving the daily forecast at 8 AM.

×

10-Day Weather Forecast

Almanac

Astronomy

Feb. 21, 2017 Rise Set
Actual Time
Civil Twilight
Nautical Twilight
Astronomical Twilight
Moon
Length of Visible Light
Length of Day
Tomorrow will be .
, % of the Moon is Illuminated

Today's Extremes

State Highs State Lows

Community

WunderPhotos

Upload Photos

1,962,540 photos uploaded!

WunderBlog® & News

Nearby

Air Quality

  Air Quality AQ Index Pollutant
Not available.

Snow Depth

Station Depth Elevation

Earthquake Activity

City Distance Mag. Time & Date
Minimum magnitude displayed is 2.5.

Coastal Water Temperatures

Place Temperature

Stations

Nearby Weather Stations

Station Location Temp. Windchill Dew Point Humidity Wind Precip. Elev Updated Type
                   

Watches & Warnings

There are currently no watches in effect.